Trimont, Minnesota
Current Conditions -  °F | °C
As of 9:33 AM on Friday 19 Dec 2014 (Local Time) from KMJQ Reporting Station
Haze Haze  
Wind Chill: 22°   Ceiling: 300
Heat Index: 30°   Visibility: 3mi
Dew Point: 28°   Wind: 9mph
Humidity: 93%   Direction: 180°S
Pressure: 30.18"   Gusts: NA
Location:  43.76°N, 94.71°W
Report Text: KMJQ 191533Z AUTO 18008KT 3SM BR OVC003 M01/M02 A3018 RMK AO2
Loading
Personal Weather Stations






























Interactive Weather Map New forecast layout! Learn more

10-Day Weather Forecast

Advertisements
Track Severe Weather on mobile